Terminal Aerodrome Forecast
Issued by NWS Memphis, TN

Home | Current Version | Previous Version | Text Only | Print | Product List | Glossary On
Versions: 1 2 3 4 5 6 7 8 9 10 11 12 13 14 15
000
FTUS44 KMEG 250521
TAFJBR
TAF
KJBR 250521Z 2506/2606 18003KT P6SM SKC
     FM251300 18010KT P6SM SKC
     FM251600 19018G24KT P6SM FEW250
     FM260000 18012KT P6SM FEW250=

USA.gov is the U.S. government's official web portal to all federal, state and local government web resources and services.